createdAt,value
2019-03-13T00:02:24.270Z,99453.19
2019-03-13T00:07:27.802Z,99452.26
2019-03-13T00:12:31.394Z,99438.04
2019-03-13T00:17:34.910Z,99425.94
2019-03-13T00:22:38.476Z,99402.52
2019-03-13T00:27:42.042Z,99394.02
2019-03-13T00:32:45.598Z,99386.29
2019-03-13T00:37:49.203Z,99369.20
2019-03-13T00:42:52.759Z,99378.00
2019-03-13T00:47:56.323Z,99388.20
2019-03-13T00:52:59.915Z,99360.16
2019-03-13T00:58:03.440Z,99354.61
2019-03-13T01:03:08.585Z,99343.40
2019-03-13T01:08:12.190Z,99324.42
2019-03-13T01:13:15.727Z,99332.66
2019-03-13T01:18:19.287Z,99325.80
2019-03-13T01:23:22.858Z,99317.91
2019-03-13T01:28:26.425Z,99317.91
2019-03-13T01:33:29.986Z,99321.40
2019-03-13T01:38:33.549Z,99318.86
2019-03-13T01:43:37.141Z,99313.53
2019-03-13T01:48:40.666Z,99317.66
2019-03-13T01:53:44.229Z,99302.05
2019-03-13T01:58:48.310Z,99306.22
2019-03-13T02:03:51.859Z,99304.03
2019-03-13T02:08:55.410Z,99287.22
2019-03-13T02:13:58.935Z,99267.01
2019-03-13T02:19:02.472Z,99253.03
2019-03-13T02:24:06.032Z,99217.34
2019-03-13T02:29:09.593Z,99238.52
2019-03-13T02:34:13.276Z,99227.61
2019-03-13T02:39:16.779Z,99224.63
2019-03-13T02:44:20.325Z,99217.23
2019-03-13T02:49:23.922Z,99200.84
2019-03-13T02:54:27.471Z,99186.06
2019-03-13T02:59:30.967Z,99186.59
2019-03-13T03:04:34.537Z,99164.40
2019-03-13T03:09:38.072Z,99157.54
2019-03-13T03:14:44.752Z,99144.89
2019-03-13T03:19:48.306Z,99111.49
2019-03-13T03:24:51.966Z,99114.86
2019-03-13T03:29:55.513Z,99118.93
2019-03-13T03:34:59.056Z,99129.45
2019-03-13T03:40:02.745Z,99154.61
2019-03-13T03:45:08.291Z,99129.44
2019-03-13T03:50:14.375Z,99123.70
2019-03-13T03:55:17.933Z,99128.09
2019-03-13T04:00:21.564Z,99119.88
2019-03-13T04:05:25.098Z,99100.30
2019-03-13T04:10:28.665Z,99096.62
2019-03-13T04:15:32.219Z,99091.20
2019-03-13T04:20:35.771Z,99091.20
2019-03-13T04:25:39.366Z,99077.72
2019-03-13T04:30:42.888Z,99079.73
2019-03-13T04:35:46.449Z,99072.38
2019-03-13T04:40:49.988Z,99063.94
2019-03-13T04:45:53.638Z,99064.12
2019-03-13T04:50:57.160Z,99061.95
2019-03-13T04:56:00.700Z,99049.78
2019-03-13T05:01:05.468Z,99059.80
2019-03-13T05:06:12.422Z,99063.54
2019-03-13T05:11:15.957Z,99063.63
2019-03-13T05:16:19.490Z,99065.06
2019-03-13T05:21:23.032Z,99052.92
2019-03-13T05:26:26.603Z,99071.71
2019-03-13T05:31:30.243Z,99102.74
2019-03-13T05:36:33.833Z,99124.81
2019-03-13T05:41:37.364Z,99141.13
2019-03-13T05:46:40.924Z,99150.36
2019-03-13T05:51:44.450Z,99169.06
2019-03-13T05:56:48.025Z,99163.66
2019-03-13T06:01:51.703Z,99186.03
2019-03-13T06:06:55.219Z,99199.89
2019-03-13T06:11:58.801Z,99196.16
2019-03-13T06:17:02.318Z,99190.84
2019-03-13T06:22:05.879Z,99213.34
2019-03-13T06:27:09.450Z,99220.73
2019-03-13T06:32:13.131Z,99221.85
2019-03-13T06:37:16.649Z,99222.18
2019-03-13T06:42:20.187Z,99231.94
2019-03-13T06:47:25.014Z,99221.34
2019-03-13T06:52:31.525Z,99238.56
2019-03-13T06:57:34.113Z,99239.09
2019-03-13T07:02:41.919Z,99233.22
2019-03-13T07:07:55.903Z,99253.69
2019-03-13T07:13:15.836Z,99264.34
2019-03-13T07:18:23.966Z,99269.16
2019-03-13T07:23:43.911Z,99274.92
2019-03-13T07:28:52.321Z,99287.05
2019-03-13T07:34:12.051Z,99296.19
2019-03-13T07:39:19.982Z,99300.30
2019-03-13T07:44:25.244Z,99294.39
2019-03-13T07:49:46.589Z,99303.94
2019-03-13T07:54:51.708Z,99298.52
2019-03-13T08:00:02.541Z,99303.05
2019-03-13T08:05:10.729Z,99315.92
2019-03-13T08:10:31.905Z,99309.42
2019-03-13T08:15:39.730Z,99314.29
2019-03-13T08:21:00.858Z,99318.41
2019-03-13T08:26:09.224Z,99322.09
2019-03-13T08:31:23.115Z,99310.95
2019-03-13T08:36:44.221Z,99333.02
2019-03-13T08:42:05.343Z,99317.37
2019-03-13T08:47:13.204Z,99326.17
2019-03-13T08:52:24.023Z,99339.03
2019-03-13T08:57:29.137Z,99339.90
2019-03-13T09:02:37.278Z,99346.33
2019-03-13T09:08:00.579Z,99350.48
2019-03-13T09:13:06.686Z,99369.02
2019-03-13T09:18:14.797Z,99349.64
2019-03-13T09:23:31.498Z,99375.48
2019-03-13T09:28:36.602Z,99369.28
2019-03-13T09:33:50.715Z,99375.06
2019-03-13T09:39:04.927Z,99380.78
2019-03-13T09:44:10.089Z,99393.80
2019-03-13T09:49:21.019Z,99397.02
2019-03-13T09:54:28.953Z,99418.21
2019-03-13T09:59:43.913Z,99416.95
2019-03-13T10:05:05.256Z,99417.13
2019-03-13T10:10:13.767Z,99421.86
2019-03-13T10:15:19.033Z,99421.53
2019-03-13T10:20:30.033Z,99413.66
2019-03-13T10:25:41.179Z,99410.13
2019-03-13T10:31:04.391Z,99416.67
2019-03-13T10:36:09.479Z,99425.66
2019-03-13T10:41:17.565Z,99424.23
2019-03-13T10:46:28.664Z,99415.22
2019-03-13T10:51:39.259Z,99421.14
2019-03-13T10:56:50.128Z,99421.72
2019-03-13T11:01:55.231Z,99401.44
2019-03-13T11:07:09.250Z,99401.44
2019-03-13T11:12:20.233Z,99414.20
2019-03-13T11:17:28.338Z,99419.20
2019-03-13T11:22:33.445Z,99406.04
2019-03-13T11:27:47.711Z,99408.14
2019-03-13T11:32:52.822Z,99401.73
2019-03-13T11:37:57.954Z,99398.59
2019-03-13T11:43:21.276Z,99399.87
2019-03-13T11:48:29.520Z,99392.57
2019-03-13T11:53:34.581Z,99387.80
2019-03-13T11:58:39.718Z,99383.02
2019-03-13T12:03:47.279Z,99377.64
2019-03-13T12:09:10.245Z,99361.68
2019-03-13T12:14:21.279Z,99366.53
2019-03-13T12:19:26.403Z,99352.32
2019-03-13T12:24:40.524Z,99350.98
2019-03-13T12:29:57.495Z,99343.67
2019-03-13T12:35:14.526Z,99346.45
2019-03-13T12:40:37.533Z,99329.47
2019-03-13T12:45:57.813Z,99325.70
2019-03-13T12:51:05.892Z,99337.20
2019-03-13T12:56:16.939Z,99318.75
2019-03-13T13:01:22.022Z,99316.45
2019-03-13T13:06:27.162Z,99320.41
2019-03-13T13:11:32.268Z,99322.91
2019-03-13T13:16:40.150Z,99312.89
2019-03-13T13:21:43.696Z,99307.17
2019-03-13T13:26:50.023Z,99297.53
2019-03-13T13:31:55.235Z,99291.74
2019-03-13T13:36:57.837Z,99291.83
2019-03-13T13:42:01.375Z,99292.05
2019-03-13T13:47:05.094Z,99299.17
2019-03-13T13:52:08.646Z,99292.91
2019-03-13T13:57:12.374Z,99296.95
2019-03-13T14:02:15.946Z,99297.44
2019-03-13T14:07:19.465Z,99285.98
2019-03-13T14:12:23.594Z,99287.61
2019-03-13T14:17:27.114Z,99285.90
2019-03-13T14:22:30.696Z,99293.38
2019-03-13T14:27:34.241Z,99292.25
2019-03-13T14:32:37.779Z,99301.30
2019-03-13T14:37:41.322Z,99299.85
2019-03-13T14:42:44.862Z,99293.92
2019-03-13T14:47:48.455Z,99297.39
2019-03-13T14:52:51.999Z,99303.67
2019-03-13T14:57:55.541Z,99305.72
2019-03-13T15:02:59.121Z,99301.13
2019-03-13T15:08:02.681Z,99303.91
2019-03-13T15:13:06.244Z,99293.59
2019-03-13T15:18:09.843Z,99297.60
2019-03-13T15:23:13.420Z,99293.77
2019-03-13T15:28:17.590Z,99291.40
2019-03-13T15:33:21.605Z,99289.20
2019-03-13T15:38:25.154Z,99286.34
2019-03-13T15:43:28.695Z,99290.88
2019-03-13T15:48:33.724Z,99294.03
2019-03-13T15:53:37.272Z,99300.19
2019-03-13T15:58:40.814Z,99290.50
2019-03-13T16:03:44.410Z,99286.06
2019-03-13T16:08:48.102Z,99290.60
2019-03-13T16:13:51.643Z,99293.86
2019-03-13T16:18:55.237Z,99294.00
2019-03-13T16:23:58.830Z,99298.38
2019-03-13T16:29:02.344Z,99296.50
2019-03-13T16:34:05.916Z,99292.05
2019-03-13T16:39:09.486Z,99281.30
2019-03-13T16:44:13.087Z,99281.81
2019-03-13T16:49:16.666Z,99286.30
2019-03-13T16:54:20.194Z,99282.51
2019-03-13T16:59:23.754Z,99264.35
2019-03-13T17:04:27.319Z,99264.35
2019-03-13T17:09:30.911Z,99275.41
2019-03-13T17:14:34.872Z,99278.23
2019-03-13T17:19:38.890Z,99282.84
2019-03-13T17:24:42.803Z,99284.31
2019-03-13T17:29:46.903Z,99282.13
2019-03-13T17:34:50.461Z,99281.54
2019-03-13T17:39:54.040Z,99282.45
2019-03-13T17:44:57.722Z,99276.26
2019-03-13T17:50:01.678Z,99274.78
2019-03-13T17:55:07.074Z,99267.13
2019-03-13T18:00:22.252Z,99261.77
2019-03-13T18:05:25.795Z,99268.25
2019-03-13T18:10:29.556Z,99268.83
2019-03-13T18:15:33.236Z,99264.62
2019-03-13T18:20:36.836Z,99265.54
2019-03-13T18:25:40.610Z,99255.05
2019-03-13T18:30:44.999Z,99251.67
2019-03-13T18:35:48.707Z,99256.42
2019-03-13T18:40:52.295Z,99260.81
2019-03-13T18:45:55.890Z,99256.29
2019-03-13T18:51:00.953Z,99262.78
2019-03-13T18:56:04.955Z,99265.03
2019-03-13T19:01:08.566Z,99257.28
2019-03-13T19:06:12.106Z,99266.41
2019-03-13T19:11:15.891Z,99271.70
2019-03-13T19:16:19.459Z,99261.86
2019-03-13T19:21:23.236Z,99260.21
2019-03-13T19:26:26.802Z,99249.13
2019-03-13T19:31:30.345Z,99243.00
2019-03-13T19:36:33.991Z,99232.94
2019-03-13T19:41:37.632Z,99230.15
2019-03-13T19:46:41.167Z,99224.61
2019-03-13T19:51:44.744Z,99223.73
2019-03-13T19:56:48.325Z,99224.28
2019-03-13T20:01:51.883Z,99216.91
2019-03-13T20:06:55.478Z,99217.91
2019-03-13T20:11:59.059Z,99203.47
2019-03-13T20:17:02.592Z,99201.44
2019-03-13T20:22:06.189Z,99191.03
2019-03-13T20:27:09.808Z,99192.87
2019-03-13T20:32:13.380Z,99194.34
2019-03-13T20:37:16.994Z,99198.83
2019-03-13T20:42:20.577Z,99188.88
2019-03-13T20:47:24.141Z,99187.05
2019-03-13T20:52:27.716Z,99179.66
2019-03-13T20:57:31.301Z,99181.03
2019-03-13T21:02:34.849Z,99179.20
2019-03-13T21:07:38.401Z,99168.92
2019-03-13T21:12:41.975Z,99165.66
2019-03-13T21:17:45.546Z,99164.05
2019-03-13T21:22:49.186Z,99152.83
2019-03-13T21:27:52.727Z,99146.98
2019-03-13T21:32:56.400Z,99137.80
2019-03-13T21:37:59.968Z,99133.23
2019-03-13T21:43:03.527Z,99135.80
2019-03-13T21:48:07.072Z,99133.73
2019-03-13T21:53:10.630Z,99128.00
2019-03-13T21:58:14.173Z,99128.33
2019-03-13T22:03:28.062Z,99122.33
2019-03-13T22:08:22.989Z,99125.64
2019-03-13T22:13:26.518Z,99117.11
2019-03-13T22:18:30.092Z,99116.10
2019-03-13T22:23:33.694Z,99115.56
2019-03-13T22:28:37.218Z,99112.95
2019-03-13T22:33:40.758Z,99108.62
2019-03-13T22:38:44.345Z,99105.58
2019-03-13T22:43:47.887Z,99103.30
2019-03-13T22:48:58.013Z,99103.53
2019-03-13T22:53:56.722Z,99103.18
2019-03-13T22:59:00.318Z,99092.90
2019-03-13T23:04:03.952Z,99096.11
2019-03-13T23:09:09.638Z,99088.82
2019-03-13T23:14:13.172Z,99088.58
2019-03-13T23:19:17.663Z,99079.36
2019-03-13T23:24:21.450Z,99083.89
2019-03-13T23:29:25.009Z,99081.75
2019-03-13T23:34:28.922Z,99066.36
2019-03-13T23:39:32.462Z,99066.57
2019-03-13T23:44:36.028Z,99055.55
2019-03-13T23:49:39.568Z,99058.70
2019-03-13T23:54:43.132Z,99062.40
2019-03-13T23:59:46.664Z,99056.18
